Terminal Aerodrome Forecast
Issued by NWS

Home | Current Version | Previous Version | Graphics & Text | Print | Product List | Glossary On
Versions: 1 2 3 4 5 6 7 8 9 10 11 12 13 14
000
FTUS42 KMHX 091127 AAD
TAFOAJ
TAF AMD
KOAJ 091127Z 0911/1012 01010KT 5SM -RA OVC006
     FM091800 33010KT P6SM VCSH OVC007
     FM092200 31010KT P6SM OVC010
     FM100300 27005KT P6SM BKN015
     FM100500 27005KT P6SM BKN045
     FM100700 27005KT P6SM SCT060
      AMD LTD TO CLD VIS AND WIND=

USA.gov is the U.S. government's official web portal to all federal, state and local government web resources and services.